createdAt,value
2023-03-20T00:01:24.199Z,100240.64
2023-03-20T00:03:51.686Z,100238.12
2023-03-20T00:06:21.406Z,100238.08
2023-03-20T00:08:50.729Z,100236.73
2023-03-20T00:11:31.530Z,100235.42
2023-03-20T00:14:03.146Z,100235.14
2023-03-20T00:16:36.258Z,100233.75
2023-03-20T00:19:04.203Z,100232.53
2023-03-20T00:21:31.696Z,100227.95
2023-03-20T00:23:59.092Z,100226.38
2023-03-20T00:26:31.586Z,100228.54
2023-03-20T00:28:58.660Z,100225.30
2023-03-20T00:31:29.363Z,100218.33
2023-03-20T00:34:01.728Z,100222.23
2023-03-20T00:36:28.960Z,100220.83
2023-03-20T00:38:59.624Z,100219.15
2023-03-20T00:41:46.627Z,100219.59
2023-03-20T00:44:37.206Z,100219.28
2023-03-20T00:47:12.646Z,100219.60
2023-03-20T00:49:39.487Z,100219.62
2023-03-20T00:52:09.211Z,100214.21
2023-03-20T00:54:36.433Z,100213.84
2023-03-20T00:57:18.722Z,100210.94
2023-03-20T01:00:02.461Z,100209.52
2023-03-20T01:02:31.527Z,100209.77
2023-03-20T01:05:00.025Z,100205.30
2023-03-20T01:07:28.050Z,100204.04
2023-03-20T01:09:58.746Z,100202.67
2023-03-20T01:12:25.839Z,100199.85
2023-03-20T01:14:57.227Z,100195.27
2023-03-20T01:17:26.323Z,100195.72
2023-03-20T01:19:53.414Z,100196.52
2023-03-20T01:22:20.750Z,100199.20
2023-03-20T01:24:48.168Z,100194.29
2023-03-20T01:27:17.811Z,100193.29
2023-03-20T01:29:44.819Z,100192.67
2023-03-20T01:32:14.883Z,100194.23
2023-03-20T01:34:42.585Z,100195.91
2023-03-20T01:37:13.887Z,100197.55
2023-03-20T01:39:41.286Z,100198.92
2023-03-20T01:42:08.412Z,100199.66
2023-03-20T01:44:36.533Z,100199.21
2023-03-20T01:47:16.063Z,100196.79
2023-03-20T01:50:22.514Z,100194.75
2023-03-20T01:52:57.474Z,100188.70
2023-03-20T01:55:25.558Z,100184.45
2023-03-20T01:58:00.045Z,100184.52
2023-03-20T02:00:27.363Z,100181.31
2023-03-20T02:02:55.666Z,100177.65
2023-03-20T02:05:48.910Z,100178.95
2023-03-20T02:08:37.692Z,100178.23
2023-03-20T02:11:05.540Z,100179.27
2023-03-20T02:13:33.260Z,100179.48
2023-03-20T02:17:05.658Z,100177.55
2023-03-20T02:20:04.419Z,100173.71
2023-03-20T02:22:53.072Z,100170.95
2023-03-20T02:25:44.425Z,100170.20
2023-03-20T02:28:39.822Z,100170.50
2023-03-20T02:31:21.843Z,100168.24
2023-03-20T02:34:26.177Z,100166.27
2023-03-20T02:37:18.144Z,100168.78
2023-03-20T02:40:05.929Z,100163.88
2023-03-20T02:42:45.783Z,100166.31
2023-03-20T02:45:16.911Z,100164.91
2023-03-20T02:50:19.334Z,100157.37
2023-03-20T02:53:06.839Z,100158.46
2023-03-20T02:55:45.241Z,100157.02
2023-03-20T02:58:24.472Z,100149.95
2023-03-20T03:01:01.778Z,100146.70
2023-03-20T03:03:34.579Z,100143.09
2023-03-20T03:06:11.231Z,100141.43
2023-03-20T03:08:43.492Z,100141.77
2023-03-20T03:11:10.646Z,100144.05
2023-03-20T03:13:44.018Z,100146.88
2023-03-20T03:16:16.606Z,100144.96
2023-03-20T03:18:46.853Z,100142.23
2023-03-20T03:21:18.829Z,100142.96
2023-03-20T03:23:48.820Z,100141.33
2023-03-20T03:26:22.968Z,100143.81
2023-03-20T03:28:56.985Z,100145.50
2023-03-20T03:31:25.500Z,100147.17
2023-03-20T03:33:55.693Z,100145.13
2023-03-20T03:36:26.279Z,100146.07
2023-03-20T03:39:13.305Z,100142.80
2023-03-20T03:41:46.364Z,100139.41
2023-03-20T03:44:35.360Z,100139.98
2023-03-20T03:47:21.398Z,100136.84
2023-03-20T03:49:58.710Z,100137.52
2023-03-20T03:52:28.470Z,100135.35
2023-03-20T03:55:08.768Z,100131.84
2023-03-20T03:57:45.894Z,100134.19
2023-03-20T04:00:19.900Z,100131.17
2023-03-20T04:02:53.521Z,100130.39
2023-03-20T04:05:22.126Z,100134.94
2023-03-20T04:07:55.042Z,100133.13
2023-03-20T04:10:22.261Z,100131.20
2023-03-20T04:12:49.153Z,100130.41
2023-03-20T04:15:17.114Z,100127.77
2023-03-20T04:17:44.562Z,100130.92
2023-03-20T04:20:13.506Z,100128.73
2023-03-20T04:22:40.783Z,100126.56
2023-03-20T04:25:20.215Z,100127.86
2023-03-20T04:27:47.648Z,100132.14
2023-03-20T04:30:25.088Z,100134.38
2023-03-20T04:33:21.926Z,100133.52
2023-03-20T04:36:12.659Z,100133.88
2023-03-20T04:38:40.715Z,100132.02
2023-03-20T04:41:08.961Z,100132.37
2023-03-20T04:43:35.983Z,100132.27
2023-03-20T04:46:02.969Z,100133.73
2023-03-20T04:48:29.887Z,100127.90
2023-03-20T04:50:57.624Z,100130.88
2023-03-20T04:53:30.444Z,100134.06
2023-03-20T04:55:57.269Z,100140.17
2023-03-20T04:58:25.934Z,100138.75
2023-03-20T05:00:52.877Z,100136.50
2023-03-20T05:03:22.544Z,100138.18
2023-03-20T05:05:51.094Z,100138.02
2023-03-20T05:08:18.518Z,100138.38
2023-03-20T05:10:45.645Z,100140.02
2023-03-20T05:13:45.105Z,100136.53
2023-03-20T05:16:41.602Z,100139.14
2023-03-20T05:19:31.117Z,100142.48
2023-03-20T05:22:07.235Z,100147.12
2023-03-20T05:24:40.298Z,100146.93
2023-03-20T05:27:36.444Z,100148.92
2023-03-20T05:30:21.898Z,100153.40
2023-03-20T05:33:08.525Z,100151.20
2023-03-20T05:35:46.605Z,100152.87
2023-03-20T05:38:39.980Z,100154.45
2023-03-20T05:41:29.742Z,100152.29
2023-03-20T05:44:19.349Z,100149.34
2023-03-20T05:47:06.799Z,100150.98
2023-03-20T05:49:57.847Z,100150.64
2023-03-20T05:52:34.823Z,100144.09
2023-03-20T05:55:12.224Z,100138.84
2023-03-20T05:57:48.747Z,100138.48
2023-03-20T06:00:48.113Z,100139.89
2023-03-20T06:03:41.432Z,100142.58
2023-03-20T06:06:12.156Z,100147.40
2023-03-20T06:08:39.165Z,100146.06
2023-03-20T06:11:06.932Z,100145.31
2023-03-20T06:13:35.772Z,100144.97
2023-03-20T06:16:02.659Z,100146.80
2023-03-20T06:18:29.680Z,100148.77
2023-03-20T06:20:57.826Z,100149.52
2023-03-20T06:23:26.233Z,100149.83
2023-03-20T06:25:53.477Z,100149.48
2023-03-20T06:28:20.740Z,100148.77
2023-03-20T06:30:51.952Z,100153.20
2023-03-20T06:33:19.148Z,100154.96
2023-03-20T06:35:59.582Z,100154.22
2023-03-20T06:38:27.755Z,100152.95
2023-03-20T06:40:54.800Z,100154.17
2023-03-20T06:43:22.743Z,100156.91
2023-03-20T06:45:51.848Z,100157.14
2023-03-20T06:48:22.405Z,100154.02
2023-03-20T06:50:50.883Z,100155.21
2023-03-20T06:53:20.150Z,100154.50
2023-03-20T06:55:55.032Z,100155.38
2023-03-20T06:58:21.846Z,100154.55
2023-03-20T07:00:50.416Z,100151.54
2023-03-20T07:03:17.568Z,100153.78
2023-03-20T07:05:46.330Z,100152.17
2023-03-20T07:08:13.319Z,100153.48
2023-03-20T07:10:40.209Z,100149.05
2023-03-20T07:13:07.152Z,100149.80
2023-03-20T07:15:35.276Z,100147.55
2023-03-20T07:18:02.877Z,100145.50
2023-03-20T07:20:29.955Z,100141.77
2023-03-20T07:22:56.899Z,100142.98
2023-03-20T07:25:41.306Z,100144.29
2023-03-20T07:28:09.433Z,100141.64
2023-03-20T07:30:37.637Z,100139.98
2023-03-20T07:33:05.196Z,100141.77
2023-03-20T07:35:33.140Z,100143.00
2023-03-20T07:38:00.633Z,100141.27
2023-03-20T07:40:28.359Z,100142.94
2023-03-20T07:42:59.087Z,100139.23
2023-03-20T07:45:48.706Z,100140.58
2023-03-20T07:48:19.394Z,100138.95
2023-03-20T07:50:46.365Z,100135.94
2023-03-20T07:53:13.510Z,100139.96
2023-03-20T07:55:40.875Z,100145.04
2023-03-20T07:58:10.179Z,100145.77
2023-03-20T08:00:37.109Z,100148.76
2023-03-20T08:03:04.609Z,100147.30
2023-03-20T08:05:31.684Z,100147.63
2023-03-20T08:07:58.706Z,100151.60
2023-03-20T08:10:25.913Z,100152.55
2023-03-20T08:12:52.800Z,100148.52
2023-03-20T08:15:19.706Z,100143.45
2023-03-20T08:17:46.932Z,100141.42
2023-03-20T08:20:16.472Z,100141.52
2023-03-20T08:22:44.356Z,100141.46
2023-03-20T08:25:14.170Z,100137.83
2023-03-20T08:27:41.217Z,100138.23
2023-03-20T08:30:09.810Z,100138.48
2023-03-20T08:32:36.998Z,100132.88
2023-03-20T08:35:04.169Z,100128.57
2023-03-20T08:37:31.219Z,100129.73
2023-03-20T08:39:58.052Z,100133.90
2023-03-20T08:42:24.954Z,100130.82
2023-03-20T08:44:52.175Z,100127.15
2023-03-20T08:47:19.766Z,100129.59
2023-03-20T08:49:46.603Z,100125.14
2023-03-20T08:52:14.958Z,100122.42
2023-03-20T08:54:41.879Z,100120.80
2023-03-20T08:57:08.879Z,100122.64
2023-03-20T08:59:35.769Z,100124.25
2023-03-20T09:02:02.706Z,100128.81
2023-03-20T09:04:29.890Z,100126.05
2023-03-20T09:06:57.306Z,100125.33
2023-03-20T09:09:29.699Z,100126.66
2023-03-20T09:12:01.685Z,100126.43
2023-03-20T09:14:29.530Z,100127.33
2023-03-20T09:16:56.484Z,100129.85
2023-03-20T09:19:23.487Z,100131.83
2023-03-20T09:21:50.370Z,100132.12
2023-03-20T09:24:17.378Z,100130.95
2023-03-20T09:26:44.421Z,100129.69
2023-03-20T09:29:11.449Z,100124.90
2023-03-20T09:31:38.568Z,100124.54
2023-03-20T09:34:05.646Z,100119.39
2023-03-20T09:36:33.815Z,100116.70
2023-03-20T09:39:01.160Z,100121.18
2023-03-20T09:41:28.588Z,100117.83
2023-03-20T09:44:28.913Z,100116.55
2023-03-20T09:47:23.831Z,100116.14
2023-03-20T09:50:14.893Z,100118.95
2023-03-20T09:52:57.594Z,100119.32
2023-03-20T09:55:33.865Z,100121.23
2023-03-20T09:58:24.689Z,100121.24
2023-03-20T10:00:52.103Z,100120.70
2023-03-20T10:03:28.408Z,100114.54
2023-03-20T10:06:03.744Z,100115.48
2023-03-20T10:08:36.685Z,100113.92
2023-03-20T10:11:16.375Z,100113.70
2023-03-20T10:14:02.212Z,100114.36
2023-03-20T10:16:35.295Z,100108.23
2023-03-20T10:19:11.894Z,100107.39
2023-03-20T10:21:47.385Z,100106.42
2023-03-20T10:24:28.890Z,100107.55
2023-03-20T10:27:01.607Z,100110.25
2023-03-20T10:29:59.729Z,100108.02
2023-03-20T10:32:33.152Z,100100.96
2023-03-20T10:35:09.038Z,100098.31
2023-03-20T10:38:12.081Z,100100.02
2023-03-20T10:40:41.970Z,100092.80
2023-03-20T10:43:27.340Z,100088.91
2023-03-20T10:46:17.571Z,100086.92
2023-03-20T10:48:52.439Z,100082.16
2023-03-20T10:51:23.561Z,100081.30
2023-03-20T10:54:01.321Z,100078.13
2023-03-20T10:56:39.604Z,100081.45
2023-03-20T10:59:27.749Z,100077.46
2023-03-20T11:01:54.913Z,100078.89
2023-03-20T11:04:21.981Z,100075.77
2023-03-20T11:07:07.304Z,100077.86
2023-03-20T11:09:34.296Z,100073.01
2023-03-20T11:12:03.877Z,100073.13
2023-03-20T11:14:39.127Z,100075.35
2023-03-20T11:17:07.127Z,100066.64
2023-03-20T11:19:40.575Z,100068.86
2023-03-20T11:22:26.557Z,100069.81
2023-03-20T11:25:01.763Z,100067.94
2023-03-20T11:27:34.759Z,100066.83
2023-03-20T11:30:08.565Z,100073.70
2023-03-20T11:32:47.757Z,100070.46
2023-03-20T11:35:24.151Z,100060.52
2023-03-20T11:37:54.191Z,100056.91
2023-03-20T11:40:34.506Z,100058.57
2023-03-20T11:43:01.730Z,100058.40
2023-03-20T11:45:44.919Z,100059.61
2023-03-20T11:48:19.476Z,100057.83
2023-03-20T11:50:52.934Z,100056.73
2023-03-20T11:53:28.817Z,100052.94
2023-03-20T11:56:21.025Z,100055.38
2023-03-20T11:59:03.669Z,100057.33
2023-03-20T12:01:58.219Z,100052.73
2023-03-20T12:04:37.844Z,100051.07
2023-03-20T12:07:17.691Z,100050.38
2023-03-20T12:09:53.790Z,100053.21
2023-03-20T12:12:45.901Z,100050.27
2023-03-20T12:15:17.735Z,100052.42
2023-03-20T12:17:56.936Z,100044.52
2023-03-20T12:20:55.584Z,100046.05
2023-03-20T12:23:44.572Z,100046.76
2023-03-20T12:26:15.526Z,100049.82
2023-03-20T12:28:45.643Z,100050.71
2023-03-20T12:31:27.044Z,100043.67
2023-03-20T12:34:17.508Z,100040.95
2023-03-20T12:36:47.535Z,100035.39
2023-03-20T12:39:18.856Z,100031.59
2023-03-20T12:42:07.527Z,100029.83
2023-03-20T12:45:01.238Z,100027.95
2023-03-20T12:48:00.268Z,100025.52
2023-03-20T12:50:40.095Z,100022.16
2023-03-20T12:53:09.803Z,100023.25
2023-03-20T12:56:06.249Z,100030.12
2023-03-20T12:58:53.652Z,100025.40
2023-03-20T13:01:26.636Z,100023.55
2023-03-20T13:04:05.813Z,100022.42
2023-03-20T13:06:52.109Z,100020.34
2023-03-20T13:09:23.278Z,100021.75
2023-03-20T13:12:05.204Z,100020.85
2023-03-20T13:14:49.085Z,100022.44
2023-03-20T13:17:29.671Z,100022.82
2023-03-20T13:20:17.950Z,100023.11
2023-03-20T13:22:54.065Z,100018.60
2023-03-20T13:25:49.159Z,100013.90
2023-03-20T13:28:23.478Z,100011.45
2023-03-20T13:30:53.234Z,100008.83
2023-03-20T13:33:36.430Z,100006.27
2023-03-20T13:36:25.723Z,100004.45
2023-03-20T13:39:01.210Z,100008.55
2023-03-20T13:41:29.133Z,100006.29
2023-03-20T13:44:02.089Z,100002.77
2023-03-20T13:46:44.900Z,100001.02
2023-03-20T13:49:59.054Z,100006.95
2023-03-20T13:52:31.466Z,100005.35
2023-03-20T13:55:36.311Z,100004.61
2023-03-20T13:58:09.359Z,100009.09
2023-03-20T14:00:36.571Z,100004.66
2023-03-20T14:03:26.338Z,100004.03
2023-03-20T14:05:53.422Z,100002.03
2023-03-20T14:08:38.571Z,100008.48
2023-03-20T14:11:13.563Z,100004.73
2023-03-20T14:14:07.751Z,100005.23
2023-03-20T14:16:34.681Z,100001.89
2023-03-20T14:19:21.845Z,100000.39
2023-03-20T14:21:52.365Z,100008.08
2023-03-20T14:24:21.115Z,100004.46
2023-03-20T14:27:00.220Z,100010.23
2023-03-20T14:29:30.428Z,100010.65
2023-03-20T14:32:24.294Z,100009.66
2023-03-20T14:35:14.929Z,100004.45
2023-03-20T14:38:21.623Z,100006.84
2023-03-20T14:41:27.673Z,100006.11
2023-03-20T14:44:03.816Z,100009.53
2023-03-20T14:46:39.691Z,100013.30
2023-03-20T14:49:48.859Z,100008.95
2023-03-20T14:52:53.695Z,100010.36
2023-03-20T14:55:20.731Z,100010.86
2023-03-20T14:57:56.425Z,100010.17
2023-03-20T15:00:27.592Z,100005.61
2023-03-20T15:03:07.352Z,100005.69
2023-03-20T15:05:37.245Z,100009.60
2023-03-20T15:08:11.604Z,100009.64
2023-03-20T15:10:47.655Z,100008.71
2023-03-20T15:13:16.988Z,100010.02
2023-03-20T15:15:58.049Z,100014.91
2023-03-20T15:18:27.673Z,100016.55
2023-03-20T15:20:58.030Z,100020.45
2023-03-20T15:23:27.175Z,100018.02
2023-03-20T15:25:54.064Z,100020.77
2023-03-20T15:28:27.783Z,100024.73
2023-03-20T15:30:59.687Z,100024.55
2023-03-20T15:33:28.670Z,100028.07
2023-03-20T15:35:56.791Z,100024.72
2023-03-20T15:38:30.721Z,100026.30
2023-03-20T15:40:58.185Z,100029.45
2023-03-20T15:43:26.940Z,100030.98
2023-03-20T15:46:16.930Z,100035.20
2023-03-20T15:48:49.189Z,100039.77
2023-03-20T15:51:17.516Z,100040.09
2023-03-20T15:53:47.882Z,100038.67
2023-03-20T15:56:19.576Z,100040.63
2023-03-20T15:58:52.584Z,100046.58
2023-03-20T16:01:23.425Z,100050.61
2023-03-20T16:03:52.311Z,100045.79
2023-03-20T16:06:25.734Z,100049.14
2023-03-20T16:09:08.546Z,100047.73
2023-03-20T16:11:41.569Z,100047.94
2023-03-20T16:14:15.009Z,100052.25
2023-03-20T16:16:42.642Z,100050.66
2023-03-20T16:19:13.176Z,100053.89
2023-03-20T16:21:44.992Z,100055.42
2023-03-20T16:24:20.662Z,100057.12
2023-03-20T16:26:51.519Z,100059.41
2023-03-20T16:29:22.894Z,100055.14
2023-03-20T16:31:59.773Z,100053.41
2023-03-20T16:34:35.893Z,100055.68
2023-03-20T16:37:08.561Z,100056.94
2023-03-20T16:39:35.632Z,100058.67
2023-03-20T16:42:19.263Z,100055.70
2023-03-20T16:44:46.537Z,100051.91
2023-03-20T16:47:20.955Z,100055.66
2023-03-20T16:50:02.562Z,100051.71
2023-03-20T16:52:32.613Z,100050.63
2023-03-20T16:55:01.010Z,100050.20
2023-03-20T16:57:33.478Z,100050.00
2023-03-20T17:00:06.557Z,100046.84
2023-03-20T17:02:41.149Z,100044.93
2023-03-20T17:05:13.783Z,100045.14
2023-03-20T17:07:42.776Z,100044.36
2023-03-20T17:10:21.782Z,100047.41
2023-03-20T17:12:51.541Z,100050.58
2023-03-20T17:15:24.725Z,100053.07
2023-03-20T17:17:52.218Z,100048.64
2023-03-20T17:20:21.203Z,100051.70
2023-03-20T17:22:48.329Z,100059.55
2023-03-20T17:25:16.024Z,100065.02
2023-03-20T17:27:43.325Z,100063.05
2023-03-20T17:30:25.525Z,100065.13
2023-03-20T17:32:53.481Z,100067.21
2023-03-20T17:35:20.591Z,100062.08
2023-03-20T17:37:49.139Z,100064.48
2023-03-20T17:40:22.362Z,100071.30
2023-03-20T17:42:49.359Z,100077.94
2023-03-20T17:45:20.451Z,100078.64
2023-03-20T17:47:48.040Z,100080.54
2023-03-20T17:50:25.785Z,100079.78
2023-03-20T17:52:53.822Z,100077.81
2023-03-20T17:55:21.382Z,100068.13
2023-03-20T17:57:49.035Z,100069.73
2023-03-20T18:00:20.709Z,100071.16
2023-03-20T18:02:48.329Z,100070.06
2023-03-20T18:05:15.670Z,100071.04
2023-03-20T18:07:42.706Z,100072.36
2023-03-20T18:10:25.440Z,100070.23
2023-03-20T18:12:52.386Z,100066.38
2023-03-20T18:15:19.437Z,100066.49
2023-03-20T18:17:46.508Z,100064.48
2023-03-20T18:20:34.899Z,100063.60
2023-03-20T18:23:02.044Z,100066.53
2023-03-20T18:25:29.471Z,100062.21
2023-03-20T18:27:58.699Z,100058.62
2023-03-20T18:30:29.731Z,100058.85
2023-03-20T18:32:56.676Z,100059.14
2023-03-20T18:35:23.722Z,100065.38
2023-03-20T18:37:50.815Z,100060.98
2023-03-20T18:40:29.939Z,100063.96
2023-03-20T18:43:00.160Z,100066.16
2023-03-20T18:45:29.157Z,100064.67
2023-03-20T18:47:57.468Z,100063.29
2023-03-20T18:50:33.933Z,100065.48
2023-03-20T18:53:03.890Z,100070.08
2023-03-20T18:55:31.986Z,100071.85
2023-03-20T18:57:59.137Z,100067.58
2023-03-20T19:00:38.292Z,100067.98
2023-03-20T19:03:06.019Z,100068.41
2023-03-20T19:05:33.398Z,100071.48
2023-03-20T19:08:01.366Z,100072.69
2023-03-20T19:10:40.245Z,100071.66
2023-03-20T19:13:07.851Z,100069.55
2023-03-20T19:15:37.512Z,100066.70
2023-03-20T19:18:15.646Z,100067.70
2023-03-20T19:20:45.723Z,100069.06
2023-03-20T19:23:15.300Z,100064.65
2023-03-20T19:25:44.805Z,100068.64
2023-03-20T19:28:42.084Z,100066.77
2023-03-20T19:31:10.143Z,100067.41
2023-03-20T19:33:39.264Z,100071.41
2023-03-20T19:36:08.067Z,100073.81
2023-03-20T19:38:38.161Z,100072.57
2023-03-20T19:41:05.740Z,100074.83
2023-03-20T19:43:33.377Z,100073.30
2023-03-20T19:46:00.600Z,100072.58
2023-03-20T19:48:46.841Z,100072.05
2023-03-20T19:51:22.553Z,100073.02
2023-03-20T19:53:50.971Z,100071.27
2023-03-20T19:56:22.390Z,100069.55
2023-03-20T19:58:50.442Z,100070.77
2023-03-20T20:01:24.071Z,100070.46
2023-03-20T20:03:53.940Z,100070.08
2023-03-20T20:06:22.423Z,100067.97
2023-03-20T20:08:50.887Z,100073.81
2023-03-20T20:11:20.719Z,100072.23
2023-03-20T20:16:40.342Z,100065.44
2023-03-20T20:19:07.883Z,100067.85
2023-03-20T20:24:22.228Z,100072.45
2023-03-20T20:26:55.572Z,100069.25
2023-03-20T20:29:27.465Z,100068.80
2023-03-20T20:31:54.792Z,100070.33
2023-03-20T20:37:56.539Z,100064.03
2023-03-20T20:39:57.904Z,100064.11
2023-03-20T20:42:26.608Z,100062.38
2023-03-20T20:44:53.717Z,100065.38
2023-03-20T20:47:21.475Z,100066.72
2023-03-20T20:49:49.161Z,100065.52
2023-03-20T20:52:16.322Z,100064.08
2023-03-20T20:54:43.546Z,100070.01
2023-03-20T20:57:12.097Z,100075.23
2023-03-20T20:59:40.511Z,100075.52
2023-03-20T21:02:12.010Z,100075.74
2023-03-20T21:04:41.339Z,100078.48
2023-03-20T21:07:12.156Z,100081.36
2023-03-20T21:09:40.989Z,100082.45
2023-03-20T21:12:14.744Z,100084.45
2023-03-20T21:14:50.882Z,100082.20
2023-03-20T21:17:17.933Z,100083.34
2023-03-20T21:19:45.152Z,100078.52
2023-03-20T21:22:16.024Z,100082.14
2023-03-20T21:24:43.638Z,100078.92
2023-03-20T21:27:14.550Z,100081.79
2023-03-20T21:29:43.385Z,100083.36
2023-03-20T21:32:17.958Z,100082.70
2023-03-20T21:34:45.121Z,100084.48
2023-03-20T21:40:07.388Z,100083.73
2023-03-20T21:42:35.181Z,100085.57
2023-03-20T21:51:15.212Z,100086.17
2023-03-20T21:56:56.610Z,100089.17
2023-03-20T22:02:07.724Z,100087.51
2023-03-20T22:05:22.156Z,100082.44
2023-03-20T22:16:31.293Z,100070.86
2023-03-20T22:22:00.108Z,100067.76
2023-03-20T22:30:12.611Z,100071.87
2023-03-20T22:33:10.923Z,100067.45
2023-03-20T22:36:02.915Z,100065.14
2023-03-20T22:38:55.716Z,100070.11
2023-03-20T22:41:50.570Z,100069.48
2023-03-20T22:44:34.014Z,100072.59
2023-03-20T22:47:24.888Z,100071.97
2023-03-20T22:50:11.185Z,100072.85
2023-03-20T22:52:48.821Z,100075.76
2023-03-20T22:55:17.772Z,100071.52
2023-03-20T22:57:59.864Z,100076.08
2023-03-20T23:00:32.605Z,100077.05
2023-03-20T23:03:13.837Z,100076.30
2023-03-20T23:05:44.819Z,100077.65
2023-03-20T23:08:12.357Z,100079.79
2023-03-20T23:10:44.868Z,100080.56
2023-03-20T23:13:12.867Z,100077.73
2023-03-20T23:15:39.952Z,100076.98
2023-03-20T23:18:07.086Z,100076.23
2023-03-20T23:20:34.212Z,100073.24
2023-03-20T23:23:01.240Z,100074.60
2023-03-20T23:25:38.835Z,100075.14
2023-03-20T23:28:10.545Z,100070.17
2023-03-20T23:30:46.557Z,100072.45
2023-03-20T23:33:17.785Z,100067.55
2023-03-20T23:35:44.724Z,100068.30
2023-03-20T23:38:11.732Z,100067.65
2023-03-20T23:40:38.942Z,100070.21
2023-03-20T23:43:06.120Z,100067.67
2023-03-20T23:45:32.988Z,100070.29
2023-03-20T23:48:00.014Z,100069.86
2023-03-20T23:50:34.284Z,100067.66
2023-03-20T23:53:17.465Z,100065.32
2023-03-20T23:55:47.819Z,100064.09
2023-03-20T23:58:15.769Z,100063.50
